Terminal Aerodrome Forecast
Issued by NWS

Home | Current Version | Previous Version | Text Only | Print | Product List | Glossary Off
Versions: 1 2 3 4 5 6 7 8 9 10 11 12 13 14 15 16 17 18 19 20

843
FTUS43 KMPX 271720
TAFAXN
TAF
KAXN 271720Z 2718/2818 13007KT P6SM VCSH SCT025 OVC035
      TEMPO 2718/2720 4SM -SHRA BR OVC025
     FM272000 07007KT P6SM -SHRA BKN025 OVC050
     FM280500 01004KT 4SM BR SCT007 OVC015
      TEMPO 2809/2812 OVC005
     FM281500 03007KT P6SM BKN025=

USA.gov is the U.S. government's official web portal to all federal, state and local government web resources and services.